Time;durP1;ratioP1;P1;durP2;ratioP2;P2;SDS_P1;SDS_P2;PMS_P1;PMS_P2;Temp;Humidity;BMP_temperature;BMP_pressure;BME280_temperature;BME280_humidity;BME280_pressure;Samples;Min_cycle;Max_cycle;Signal;HPM_P1;HPM_P2
2022/05/11 00:00:40;;;;;;;24.65;16.92;;;12.90;99.90;;;;;;5107634;27;20057;-50
2022/05/11 00:03:06;;;;;;;23.02;16.30;;;12.90;99.90;;;;;;5095437;27;20451;-51
2022/05/11 00:05:32;;;;;;;20.60;16.40;;;12.90;99.90;;;;;;5110439;28;20104;-49
2022/05/11 00:07:58;;;;;;;21.42;15.20;;;13.00;99.90;;;;;;5109962;27;20472;-54
2022/05/11 00:10:24;;;;;;;24.58;16.05;;;12.90;99.90;;;;;;5118079;28;20057;-53
2022/05/11 00:12:51;;;;;;;24.85;15.32;;;13.00;99.90;;;;;;5104716;28;20055;-51
2022/05/11 00:15:20;;;;;;;25.25;16.08;;;13.00;99.90;;;;;;5119989;28;20062;-52
2022/05/11 00:17:45;;;;;;;23.20;15.93;;;13.00;99.90;;;;;;5108728;28;20520;-50
2022/05/11 00:20:12;;;;;;;21.17;15.90;;;13.00;99.90;;;;;;5118981;27;20085;-55
2022/05/11 00:22:38;;;;;;;23.58;15.45;;;13.00;99.90;;;;;;5106048;28;20048;-54
2022/05/11 00:25:06;;;;;;;16.73;14.90;;;13.00;99.90;;;;;;5116764;28;20061;-53
2022/05/11 00:27:33;;;;;;;20.33;14.95;;;13.10;99.90;;;;;;5117303;28;20051;-56
2022/05/11 00:29:58;;;;;;;16.05;13.65;;;13.10;99.90;;;;;;5120187;27;20130;-52
2022/05/11 00:32:25;;;;;;;21.65;14.27;;;13.10;99.90;;;;;;5114869;28;20070;-51
2022/05/11 00:34:52;;;;;;;18.45;14.10;;;13.10;99.90;;;;;;5072089;28;20074;-43
2022/05/11 00:37:18;;;;;;;16.67;13.75;;;13.10;99.90;;;;;;5058445;28;20131;-51
2022/05/11 00:39:44;;;;;;;21.95;14.25;;;13.10;99.90;;;;;;5059786;28;20048;-51
2022/05/11 00:42:10;;;;;;;16.05;12.30;;;13.10;99.90;;;;;;5058019;28;20098;-55
2022/05/11 00:44:36;;;;;;;14.90;12.02;;;13.20;99.90;;;;;;5059634;28;20049;-50
2022/05/11 00:47:09;;;;;;;17.00;13.07;;;13.20;99.90;;;;;;5060153;28;20056;-52
2022/05/11 00:49:39;;;;;;;;;;;13.20;99.90;;;;;;5057551;28;20056;-53
2022/05/11 00:52:11;;;;;;;19.17;12.60;;;13.20;99.90;;;;;;5055888;28;19928;-57
2022/05/11 00:54:41;;;;;;;17.20;12.27;;;13.10;99.90;;;;;;5058298;28;20056;-53
2022/05/11 00:57:15;;;;;;;16.45;12.80;;;13.10;99.90;;;;;;5065096;28;20130;-53
2022/05/11 00:59:43;;;;;;;21.70;13.50;;;13.10;99.90;;;;;;5064385;28;20157;-51
2022/05/11 01:02:09;;;;;;;17.52;12.95;;;13.10;99.90;;;;;;5063854;28;20101;-54
2022/05/11 01:04:41;;;;;;;16.25;13.23;;;13.10;99.90;;;;;;5053598;28;20498;-53
2022/05/11 01:07:13;;;;;;;21.67;13.65;;;13.10;99.90;;;;;;5062284;28;20053;-52
2022/05/11 01:09:40;;;;;;;21.05;13.23;;;13.10;99.90;;;;;;5068284;28;20498;-54
2022/05/11 01:12:19;;;;;;;18.60;12.80;;;13.10;99.90;;;;;;5072631;28;20049;-54
2022/05/11 01:14:51;;;;;;;16.30;12.52;;;13.10;99.90;;;;;;5055697;28;20052;-53
2022/05/11 01:17:18;;;;;;;15.83;12.00;;;13.10;99.90;;;;;;5062579;28;20048;-57
2022/05/11 01:19:46;;;;;;;16.83;12.07;;;13.10;99.90;;;;;;5063378;28;20051;-54
2022/05/11 01:22:30;;;;;;;14.20;12.43;;;13.10;99.90;;;;;;5061532;28;20162;-56
2022/05/11 01:24:56;;;;;;;16.30;13.23;;;13.10;99.90;;;;;;5063426;28;20058;-52
2022/05/11 01:27:23;;;;;;;16.13;12.10;;;13.10;99.90;;;;;;5051742;28;20053;-55
2022/05/11 01:29:49;;;;;;;19.10;12.75;;;13.00;99.90;;;;;;5063765;28;20106;-52
2022/05/11 01:32:15;;;;;;;14.07;11.93;;;13.00;99.90;;;;;;5063081;28;20472;-48
2022/05/11 01:34:41;;;;;;;13.98;11.65;;;12.90;99.90;;;;;;5061099;28;20048;-55
2022/05/11 01:37:06;;;;;;;16.75;11.77;;;13.00;99.90;;;;;;5062537;28;20539;-48
2022/05/11 01:39:32;;;;;;;16.45;12.43;;;12.90;99.90;;;;;;5058332;28;20064;-51
2022/05/11 01:41:58;;;;;;;13.07;11.48;;;13.00;99.90;;;;;;5052443;28;20048;-54
2022/05/11 01:44:24;;;;;;;18.58;10.77;;;12.90;99.90;;;;;;5062801;28;20041;-54
2022/05/11 01:46:53;;;;;;;14.18;11.23;;;12.90;99.90;;;;;;5060446;28;20488;-56
2022/05/11 01:49:21;;;;;;;15.98;11.38;;;12.90;99.90;;;;;;5062390;28;20075;-56
2022/05/11 01:51:47;;;;;;;17.02;11.55;;;12.90;99.90;;;;;;5062259;28;20055;-53
2022/05/11 01:54:13;;;;;;;13.88;10.52;;;12.90;99.90;;;;;;5062326;28;20044;-53
2022/05/11 01:56:38;;;;;;;16.02;11.52;;;12.90;99.90;;;;;;5061052;28;20592;-53
2022/05/11 01:59:04;;;;;;;15.20;10.65;;;12.90;99.90;;;;;;5060642;28;20455;-51
2022/05/11 02:01:33;;;;;;;17.60;11.27;;;12.90;99.90;;;;;;5060617;28;20164;-52
2022/05/11 02:04:00;;;;;;;13.63;10.45;;;12.90;99.90;;;;;;5059718;28;20063;-51
2022/05/11 02:09:12;;;;;;;15.30;10.88;;;12.90;99.90;;;;;;5059930;28;20448;-56
2022/05/11 02:11:39;;;;;;;18.65;10.68;;;12.90;99.90;;;;;;5061670;28;20056;-56
2022/05/11 02:14:05;;;;;;;14.30;10.15;;;12.90;99.90;;;;;;5052003;28;20061;-54
2022/05/11 02:16:32;;;;;;;14.10;10.00;;;12.90;99.90;;;;;;5062591;28;20113;-54
2022/05/11 02:18:58;;;;;;;16.80;11.35;;;12.90;99.90;;;;;;5047489;28;20052;-50
2022/05/11 02:21:24;;;;;;;14.57;10.80;;;12.90;99.90;;;;;;5062824;28;20101;-55
2022/05/11 02:23:52;;;;;;;14.07;10.02;;;12.90;99.90;;;;;;5061630;28;20210;-54
2022/05/11 02:26:19;;;;;;;14.60;10.15;;;12.90;99.90;;;;;;5061462;28;20044;-47
2022/05/11 02:28:48;;;;;;;12.52;9.57;;;12.90;99.90;;;;;;5055231;28;20379;-55
2022/05/11 02:31:13;;;;;;;13.98;10.07;;;12.90;99.90;;;;;;5058111;28;20592;-53
2022/05/11 02:33:39;;;;;;;10.40;8.63;;;12.90;99.90;;;;;;5064997;28;20052;-56
2022/05/11 02:36:05;;;;;;;14.73;9.40;;;12.90;99.90;;;;;;5078939;28;20048;-51
2022/05/11 02:38:36;;;;;;;13.32;9.65;;;12.90;99.90;;;;;;5080889;28;20079;-55
2022/05/11 02:41:03;;;;;;;13.18;8.32;;;12.90;99.90;;;;;;5081797;28;20052;-56
2022/05/11 02:43:28;;;;;;;12.35;8.85;;;12.90;99.90;;;;;;5062629;28;20477;-51
2022/05/11 02:45:54;;;;;;;11.57;8.20;;;12.90;99.90;;;;;;5060081;28;20053;-54
2022/05/11 02:48:22;;;;;;;13.32;8.77;;;12.90;99.90;;;;;;5078993;28;20043;-50
2022/05/11 02:50:51;;;;;;;14.15;9.27;;;12.90;99.90;;;;;;5062240;28;20565;-54
2022/05/11 02:53:17;;;;;;;11.15;8.05;;;12.90;99.90;;;;;;5061942;28;20469;-51
2022/05/11 02:55:47;;;;;;;14.93;8.38;;;12.90;99.90;;;;;;5081121;28;20051;-54
2022/05/11 02:58:16;;;;;;;13.40;8.63;;;12.90;99.90;;;;;;5080173;28;20039;-51
2022/05/11 03:00:44;;;;;;;14.63;8.45;;;12.90;99.90;;;;;;5060813;28;20063;-51
2022/05/11 03:03:11;;;;;;;17.48;8.20;;;12.90;99.90;;;;;;5080128;28;20052;-55
2022/05/11 03:05:38;;;;;;;13.73;8.13;;;12.90;99.90;;;;;;5061095;28;20056;-53
2022/05/11 03:08:05;;;;;;;13.18;7.95;;;12.80;99.90;;;;;;5061185;28;20048;-55
2022/05/11 03:10:31;;;;;;;13.15;8.10;;;12.80;99.90;;;;;;5072190;28;20051;-54
2022/05/11 03:12:57;;;;;;;11.32;7.47;;;12.90;99.90;;;;;;5081381;28;20055;-51
2022/05/11 03:15:23;;;;;;;11.00;7.72;;;12.80;99.90;;;;;;5077874;28;20069;-52
2022/05/11 03:17:49;;;;;;;12.93;7.57;;;12.90;99.90;;;;;;5079054;28;20499;-52
2022/05/11 03:20:17;;;;;;;10.20;7.65;;;12.80;99.90;;;;;;5061979;28;20052;-55
2022/05/11 03:22:44;;;;;;;11.07;7.45;;;12.80;99.90;;;;;;5079863;28;20047;-53
2022/05/11 03:25:10;;;;;;;16.83;8.85;;;12.80;99.90;;;;;;5080754;28;20589;-54
2022/05/11 03:27:36;;;;;;;11.82;7.32;;;12.80;99.90;;;;;;5083740;28;20077;-53
2022/05/11 03:30:04;;;;;;;13.45;7.22;;;12.80;99.90;;;;;;5064063;28;20356;-57
2022/05/11 03:35:14;;;;;;;11.15;6.75;;;12.80;99.90;;;;;;5077654;28;20056;-56
2022/05/11 03:37:40;;;;;;;10.38;7.00;;;12.80;99.90;;;;;;5079876;28;20104;-55
2022/05/11 03:40:09;;;;;;;11.68;7.90;;;12.80;99.90;;;;;;5079189;28;20048;-49
2022/05/11 03:42:39;;;;;;;11.52;7.40;;;12.80;99.90;;;;;;5079812;28;20132;-51
2022/05/11 03:45:17;;;;;;;12.25;7.53;;;12.80;99.90;;;;;;5080526;28;20126;-54
2022/05/11 03:47:43;;;;;;;13.00;7.82;;;12.80;99.90;;;;;;5079838;28;20063;-53
2022/05/11 03:50:10;;;;;;;11.52;7.68;;;12.80;99.90;;;;;;5059075;28;20131;-52
2022/05/11 03:52:36;;;;;;;12.75;8.15;;;12.80;99.90;;;;;;5058624;28;20056;-55
2022/05/11 03:55:04;;;;;;;13.32;8.10;;;12.80;99.90;;;;;;5079479;28;20105;-52
2022/05/11 03:57:32;;;;;;;15.80;8.98;;;12.80;99.90;;;;;;5061343;28;20138;-46
2022/05/11 03:59:58;;;;;;;10.85;8.27;;;12.80;99.90;;;;;;5057910;28;20155;-49
2022/05/11 04:02:23;;;;;;;15.48;9.13;;;12.80;99.90;;;;;;5077610;28;20282;-52
2022/05/11 04:04:49;;;;;;;16.25;8.50;;;12.80;99.90;;;;;;5079862;28;20044;-51
2022/05/11 04:07:15;;;;;;;12.02;7.55;;;12.80;99.90;;;;;;5079137;28;20047;-54
2022/05/11 04:09:40;;;;;;;12.85;8.43;;;12.80;99.90;;;;;;5080052;28;20066;-53
2022/05/11 04:12:07;;;;;;;14.90;7.65;;;12.80;99.90;;;;;;5057655;28;20461;-49
2022/05/11 04:14:33;;;;;;;12.80;7.75;;;12.80;99.90;;;;;;5052751;28;20564;-52
2022/05/11 04:16:59;;;;;;;11.30;7.45;;;12.80;99.90;;;;;;5060388;28;20401;-52
2022/05/11 04:19:29;;;;;;;12.32;7.47;;;12.80;99.90;;;;;;5057405;28;20569;-54
2022/05/11 04:21:55;;;;;;;12.00;7.40;;;12.90;99.90;;;;;;5083242;28;20040;-54
2022/05/11 04:24:21;;;;;;;9.75;7.13;;;12.90;99.90;;;;;;5084426;28;20563;-55
2022/05/11 04:26:48;;;;;;;12.77;7.13;;;12.90;99.90;;;;;;5066205;28;20547;-49
2022/05/11 04:29:15;;;;;;;13.95;7.00;;;12.90;99.90;;;;;;5083874;28;20097;-52
2022/05/11 04:31:40;;;;;;;14.38;7.30;;;12.90;99.90;;;;;;5084969;28;20054;-53
2022/05/11 04:34:06;;;;;;;13.30;7.50;;;13.00;99.90;;;;;;5062173;28;20056;-54
2022/05/11 04:36:32;;;;;;;13.50;7.55;;;13.00;99.90;;;;;;5065484;28;20513;-52
2022/05/11 04:38:58;;;;;;;13.30;6.72;;;13.00;99.90;;;;;;5065602;28;20145;-56
2022/05/11 04:41:24;;;;;;;11.90;6.65;;;13.00;99.90;;;;;;5067497;28;20147;-55
2022/05/11 04:43:50;;;;;;;12.75;6.60;;;13.00;99.90;;;;;;5064385;28;20661;-56
2022/05/11 04:46:19;;;;;;;13.85;7.15;;;13.10;99.90;;;;;;5063463;28;20211;-53
2022/05/11 04:48:45;;;;;;;11.07;7.32;;;13.10;99.90;;;;;;5063517;28;20084;-47
2022/05/11 04:51:14;;;;;;;12.50;7.93;;;13.10;99.90;;;;;;5063043;28;20274;-57
2022/05/11 04:53:40;;;;;;;12.25;6.15;;;13.10;99.90;;;;;;5053728;28;20576;-54
2022/05/11 04:56:05;;;;;;;11.75;7.03;;;13.20;99.90;;;;;;5062249;28;20052;-52
2022/05/11 04:58:31;;;;;;;10.95;6.32;;;13.20;99.90;;;;;;5061876;28;20056;-56
2022/05/11 05:00:57;;;;;;;10.43;6.85;;;13.20;99.90;;;;;;5063273;28;20045;-55
2022/05/11 05:03:24;;;;;;;14.20;7.50;;;13.30;99.90;;;;;;5063987;28;20151;-57
2022/05/11 05:05:50;;;;;;;13.68;7.07;;;13.30;99.90;;;;;;5062666;28;20078;-54
2022/05/11 05:08:16;;;;;;;10.52;6.28;;;13.30;99.90;;;;;;5062391;28;20578;-54
2022/05/11 05:10:42;;;;;;;14.38;6.45;;;13.40;99.90;;;;;;5062699;28;20044;-53
2022/05/11 05:13:11;;;;;;;12.98;7.15;;;13.40;99.90;;;;;;5057790;28;20052;-54
2022/05/11 05:15:42;;;;;;;15.63;7.28;;;13.40;99.90;;;;;;5062034;28;20052;-52
2022/05/11 05:18:08;;;;;;;10.15;6.80;;;13.50;99.90;;;;;;5062945;28;20048;-50
2022/05/11 05:20:35;;;;;;;13.32;7.00;;;13.50;99.90;;;;;;5062665;28;20049;-50
2022/05/11 05:23:01;;;;;;;13.13;7.10;;;13.50;99.90;;;;;;5063090;28;20418;-52
2022/05/11 05:25:27;;;;;;;11.65;6.82;;;13.60;99.90;;;;;;5053376;28;20076;-52
2022/05/11 05:27:53;;;;;;;16.75;7.38;;;13.60;99.90;;;;;;5063342;28;20610;-52
2022/05/11 05:33:09;;;;;;;16.30;7.45;;;13.60;99.90;;;;;;5061698;28;20494;-51
2022/05/11 05:35:34;;;;;;;16.10;6.70;;;13.60;99.90;;;;;;5081720;28;20471;-53
2022/05/11 05:38:00;;;;;;;10.45;6.93;;;13.70;99.90;;;;;;5082613;28;20139;-52
2022/05/11 05:40:26;;;;;;;14.73;7.68;;;13.70;99.90;;;;;;5063197;28;20052;-51
2022/05/11 05:42:52;;;;;;;16.27;8.50;;;13.70;99.90;;;;;;5082083;28;20056;-52
2022/05/11 05:45:19;;;;;;;16.17;7.82;;;13.80;99.90;;;;;;5083251;28;20047;-53
2022/05/11 05:47:45;;;;;;;14.68;7.63;;;13.80;99.90;;;;;;5079735;28;20048;-52
2022/05/11 05:50:10;;;;;;;19.63;7.78;;;13.80;99.90;;;;;;5082985;28;20044;-53
2022/05/11 05:52:36;;;;;;;14.48;7.13;;;13.80;99.90;;;;;;5085206;28;20487;-52
2022/05/11 05:55:03;;;;;;;15.50;7.55;;;13.90;99.90;;;;;;5085379;28;20079;-54
2022/05/11 05:57:29;;;;;;;19.15;7.82;;;13.90;99.90;;;;;;5082055;28;20052;-59
2022/05/11 05:59:55;;;;;;;16.42;7.43;;;14.00;99.90;;;;;;5082485;28;20384;-54
2022/05/11 06:02:21;;;;;;;13.60;7.88;;;14.10;99.90;;;;;;5082357;28;20055;-52
2022/05/11 06:04:49;;;;;;;13.80;7.78;;;14.30;99.90;;;;;;5063838;28;20529;-49
2022/05/11 06:07:17;;;;;;;13.55;8.40;;;14.50;99.90;;;;;;5064026;28;20105;-52
2022/05/11 06:09:43;;;;;;;18.25;8.05;;;14.60;99.90;;;;;;5064989;28;20135;-55
2022/05/11 06:12:11;;;;;;;24.58;7.28;;;14.90;99.90;;;;;;5060175;28;20383;-53
2022/05/11 06:14:41;;;;;;;16.60;7.72;;;15.20;99.90;;;;;;5055746;28;20493;-51
2022/05/11 06:17:18;;;;;;;18.63;7.63;;;15.40;99.90;;;;;;5081551;28;20516;-51
2022/05/11 06:19:45;;;;;;;19.02;7.63;;;15.70;99.90;;;;;;5075268;28;20108;-55
2022/05/11 06:22:13;;;;;;;14.10;7.22;;;15.90;99.90;;;;;;5060748;28;20068;-53
2022/05/11 06:24:39;;;;;;;19.45;7.55;;;16.30;99.90;;;;;;5081307;28;20483;-57
2022/05/11 06:27:07;;;;;;;13.85;6.65;;;16.70;99.90;;;;;;5080889;28;20059;-52
2022/05/11 06:29:33;;;;;;;14.35;6.18;;;16.80;99.90;;;;;;5082176;28;20421;-45
2022/05/11 06:31:58;;;;;;;14.30;5.10;;;16.70;99.90;;;;;;5063223;28;20056;-57
2022/05/11 06:34:25;;;;;;;12.15;4.35;;;16.50;99.90;;;;;;5081507;28;20047;-55
2022/05/11 06:36:51;;;;;;;14.73;4.80;;;16.30;99.90;;;;;;5061923;28;20495;-52
2022/05/11 06:39:17;;;;;;;10.60;4.05;;;16.00;99.90;;;;;;5081570;28;20051;-53
2022/05/11 06:41:42;;;;;;;15.75;4.28;;;15.90;99.90;;;;;;5082082;28;20282;-51
2022/05/11 06:44:09;;;;;;;12.10;5.03;;;15.80;99.90;;;;;;5080585;28;20071;-55
2022/05/11 06:46:35;;;;;;;14.98;4.00;;;15.70;99.90;;;;;;5080885;28;20133;-52
2022/05/11 06:49:00;;;;;;;17.77;5.15;;;15.60;99.90;;;;;;5080418;28;20126;-53
2022/05/11 06:51:26;;;;;;;13.73;5.50;;;15.50;99.90;;;;;;5081555;28;20036;-49
2022/05/11 06:59:30;;;;;;;12.40;4.88;;;15.50;99.90;;;;;;5066133;28;20052;-56
2022/05/11 07:02:02;;;;;;;12.20;4.60;;;15.60;99.90;;;;;;5067911;28;20044;-53
2022/05/11 07:04:28;;;;;;;16.08;4.68;;;15.70;99.90;;;;;;5078909;28;20052;-52
2022/05/11 07:06:56;;;;;;;14.30;5.32;;;15.90;99.90;;;;;;5084040;28;20055;-55
2022/05/11 07:09:24;;;;;;;13.40;3.85;;;16.00;99.90;;;;;;5063158;28;20132;-51
2022/05/11 07:14:36;;;;;;;14.15;4.60;;;16.30;99.90;;;;;;5068140;28;20060;-53
2022/05/11 07:17:01;;;;;;;11.70;3.88;;;16.40;99.90;;;;;;5067503;28;20047;-55
2022/05/11 07:19:27;;;;;;;13.32;4.05;;;16.40;99.90;;;;;;5070822;28;20087;-56
2022/05/11 07:21:56;;;;;;;16.52;4.95;;;16.40;99.90;;;;;;5069401;28;20048;-52
2022/05/11 07:24:22;;;;;;;11.95;3.92;;;16.50;99.90;;;;;;5068015;28;20039;-54
2022/05/11 07:26:48;;;;;;;13.25;4.45;;;16.60;99.90;;;;;;5074662;28;20048;-50
2022/05/11 07:29:14;;;;;;;14.85;4.43;;;16.80;99.90;;;;;;5072978;28;20126;-53
2022/05/11 07:31:41;;;;;;;11.05;4.32;;;16.90;99.90;;;;;;5081063;28;20071;-51
2022/05/11 07:34:07;;;;;;;17.17;4.70;;;17.10;99.90;;;;;;5080394;28;20048;-56
2022/05/11 07:36:33;;;;;;;14.52;4.72;;;17.30;99.90;;;;;;5080262;28;20052;-50
2022/05/11 07:39:01;;;;;;;13.25;4.43;;;17.30;99.90;;;;;;5080120;28;20393;-50
2022/05/11 07:41:27;;;;;;;15.75;5.32;;;17.40;99.90;;;;;;5061825;28;20506;-50
2022/05/11 07:43:52;;;;;;;13.43;4.15;;;17.70;99.90;;;;;;5081146;28;20050;-53
2022/05/11 07:46:19;;;;;;;17.23;4.43;;;17.90;99.90;;;;;;5080388;28;20445;-54
2022/05/11 07:48:47;;;;;;;18.75;5.63;;;17.90;99.90;;;;;;5079693;28;20106;-52
2022/05/11 07:51:13;;;;;;;14.38;4.65;;;18.10;99.90;;;;;;5061254;28;20056;-52
2022/05/11 07:53:40;;;;;;;15.50;4.15;;;18.10;99.90;;;;;;5072122;28;20087;-56
2022/05/11 08:01:35;;;;;;;14.70;3.90;;;18.30;99.90;;;;;;5079371;28;20082;-52
2022/05/11 08:04:01;;;;;;;13.65;3.53;;;18.40;99.90;;;;;;5061016;28;20139;-52
2022/05/11 08:06:27;;;;;;;17.65;4.47;;;18.80;99.90;;;;;;5061459;28;20051;-51
2022/05/11 08:08:57;;;;;;;12.18;4.55;;;19.00;99.90;;;;;;5079558;28;20851;-53
2022/05/11 08:11:23;;;;;;;14.27;4.53;;;19.40;99.90;;;;;;5061985;28;20054;-54
2022/05/11 08:13:48;;;;;;;16.40;4.40;;;19.50;99.90;;;;;;5058532;28;20077;-57
2022/05/11 08:16:14;;;;;;;16.35;4.40;;;19.70;99.90;;;;;;5081544;28;20044;-53
2022/05/11 08:18:40;;;;;;;15.55;4.97;;;19.70;99.90;;;;;;5080475;28;20048;-54
2022/05/11 08:21:06;;;;;;;12.43;5.18;;;19.60;99.90;;;;;;5061056;28;20052;-53
2022/05/11 08:23:33;;;;;;;18.70;4.50;;;19.50;99.90;;;;;;5078942;28;20054;-54
2022/05/11 08:25:59;;;;;;;16.33;4.88;;;19.70;99.90;;;;;;5080507;28;20078;-55
2022/05/11 08:28:26;;;;;;;19.27;4.97;;;19.60;99.90;;;;;;5079322;28;20040;-55
2022/05/11 08:33:39;;;;;;;14.77;4.35;;;19.30;99.90;;;;;;5075442;28;20067;-55
2022/05/11 08:36:17;;;;;;;19.42;6.18;;;19.30;99.90;;;;;;5062205;28;20063;-49
2022/05/11 08:38:45;;;;;;;16.92;5.35;;;19.30;99.90;;;;;;5079228;28;20154;-55
2022/05/11 08:41:40;;;;;;;13.85;4.38;;;19.40;99.90;;;;;;5080145;28;20098;-54
2022/05/11 08:44:14;;;;;;;16.67;5.53;;;19.40;99.90;;;;;;4997441;28;20092;-53
2022/05/11 08:46:58;;;;;;;14.57;4.57;;;19.40;99.90;;;;;;4994497;28;20185;-52
2022/05/11 08:49:48;;;;;;;19.20;5.15;;;19.30;99.90;;;;;;4997129;28;20061;-50
2022/05/11 08:52:24;;;;;;;13.20;5.15;;;19.20;99.90;;;;;;4997304;28;20118;-53
2022/05/11 08:55:07;;;;;;;17.85;4.93;;;19.10;99.90;;;;;;4977710;28;20132;-48
2022/05/11 08:57:33;;;;;;;20.40;5.47;;;19.30;99.90;;;;;;4993892;28;20116;-54
2022/05/11 09:00:16;;;;;;;15.90;5.10;;;19.40;99.90;;;;;;4997341;28;20220;-54
2022/05/11 09:02:48;;;;;;;17.35;4.68;;;19.50;99.90;;;;;;4979026;28;20054;-53
2022/05/11 09:05:19;;;;;;;17.60;5.22;;;19.60;99.90;;;;;;4997534;28;20151;-53
2022/05/11 09:07:51;;;;;;;16.67;5.55;;;19.60;99.90;;;;;;4998548;28;20732;-55
2022/05/11 09:10:29;;;;;;;17.40;4.95;;;19.60;99.90;;;;;;5000586;28;20135;-52
2022/05/11 09:13:02;;;;;;;16.77;5.32;;;19.70;99.90;;;;;;5000647;28;20468;-50
2022/05/11 09:15:46;;;;;;;;;;;19.90;99.90;;;;;;5001844;28;20049;-56
2022/05/11 09:18:12;;;;;;;18.35;5.30;;;19.90;99.90;;;;;;4977842;28;19921;-52
2022/05/11 09:20:48;;;;;;;16.08;5.43;;;19.80;99.90;;;;;;5040864;28;20121;-52
2022/05/11 09:23:14;;;;;;;21.88;5.63;;;19.80;99.90;;;;;;5081972;28;20462;-58
2022/05/11 09:25:58;;;;;;;15.68;5.85;;;20.10;99.90;;;;;;5079677;28;20258;-55
2022/05/11 09:28:47;;;;;;;22.60;6.85;;;20.10;99.90;;;;;;5082642;28;20127;-52
2022/05/11 09:31:23;;;;;;;17.88;6.15;;;20.10;99.90;;;;;;5076865;28;20051;-55
2022/05/11 09:33:59;;;;;;;18.75;6.35;;;20.20;99.90;;;;;;5082400;28;20518;-53
2022/05/11 09:36:40;;;;;;;16.33;4.97;;;20.30;99.90;;;;;;5081881;28;20060;-54
2022/05/11 09:39:14;;;;;;;14.88;5.57;;;20.40;99.90;;;;;;5058931;28;20060;-45
2022/05/11 09:41:49;;;;;;;19.83;5.60;;;20.50;99.90;;;;;;5079658;28;20169;-55
2022/05/11 09:44:41;;;;;;;19.33;5.95;;;20.60;99.90;;;;;;5083950;28;20059;-54
2022/05/11 09:47:33;;;;;;;17.52;5.13;;;20.80;99.90;;;;;;5071013;28;20054;-50
2022/05/11 09:50:23;;;;;;;20.20;6.13;;;21.00;99.90;;;;;;5080041;28;20105;-51
2022/05/11 09:52:49;;;;;;;20.38;5.22;;;21.10;99.90;;;;;;5058235;28;20056;-53
2022/05/11 09:55:28;;;;;;;12.57;5.38;;;21.20;99.90;;;;;;5082320;28;20051;-49
2022/05/11 09:57:59;;;;;;;14.13;5.10;;;21.10;99.90;;;;;;5082053;28;20058;-54
2022/05/11 10:00:38;;;;;;;14.73;5.00;;;21.00;99.90;;;;;;5083679;28;20067;-55
2022/05/11 10:03:10;;;;;;;12.10;4.25;;;21.10;99.90;;;;;;5083034;28;20073;-52
2022/05/11 10:05:47;;;;;;;18.02;4.90;;;21.20;99.90;;;;;;5082890;28;20064;-53
2022/05/11 10:08:27;;;;;;;16.00;4.78;;;21.20;99.90;;;;;;5081735;28;20048;-53
2022/05/11 10:11:02;;;;;;;18.25;4.82;;;21.20;99.90;;;;;;5081174;28;20171;-54
2022/05/11 10:13:50;;;;;;;15.32;4.88;;;21.40;99.90;;;;;;5051030;28;20598;-51
2022/05/11 10:22:33;;;;;;;14.82;4.47;;;21.20;99.90;;;;;;5081214;28;20044;-53
2022/05/11 10:25:27;;;;;;;19.55;5.32;;;21.40;99.90;;;;;;5062945;28;20056;-57
2022/05/11 10:28:08;;;;;;;18.42;5.82;;;21.60;99.90;;;;;;5080143;28;20047;-53
2022/05/11 10:30:49;;;;;;;19.08;5.35;;;21.60;99.90;;;;;;5047316;28;20700;-52
2022/05/11 10:33:37;;;;;;;14.05;4.53;;;21.50;99.90;;;;;;5081388;28;20419;-53
2022/05/11 10:36:08;;;;;;;11.10;4.43;;;21.20;99.90;;;;;;5081308;28;20581;-51
2022/05/11 10:39:05;;;;;;;12.00;4.43;;;21.20;99.90;;;;;;5080978;28;20090;-53
2022/05/11 10:41:55;;;;;;;19.75;5.50;;;21.40;99.90;;;;;;5008705;28;20084;-55
2022/05/11 10:45:04;;;;;;;16.27;4.45;;;21.50;99.90;;;;;;4991180;28;20264;-55
2022/05/11 10:47:53;;;;;;;16.52;4.68;;;21.40;99.90;;;;;;5001585;28;20045;-55
2022/05/11 10:50:44;;;;;;;13.73;4.00;;;21.40;99.90;;;;;;4998546;28;20042;-49
2022/05/11 10:53:41;;;;;;;12.88;3.45;;;21.30;99.90;;;;;;4981246;28;20070;-53
2022/05/11 10:56:15;;;;;;;16.33;4.25;;;21.20;99.90;;;;;;4998396;28;20120;-55
2022/05/11 10:59:17;;;;;;;14.13;4.65;;;21.20;99.90;;;;;;4991400;28;20063;-55
2022/05/11 11:01:55;;;;;;;11.90;4.57;;;21.10;99.90;;;;;;4995572;28;20707;-55
2022/05/11 11:04:42;;;;;;;13.77;4.13;;;21.30;99.90;;;;;;4978586;28;20061;-54
2022/05/11 11:07:43;;;;;;;12.20;4.30;;;21.40;99.90;;;;;;4982775;28;20061;-55
2022/05/11 11:10:08;;;;;;;16.27;5.15;;;21.50;99.90;;;;;;4993525;28;20499;-54
2022/05/11 11:12:55;;;;;;;15.65;4.80;;;21.50;99.90;;;;;;4996885;28;20057;-49
2022/05/11 11:15:26;;;;;;;16.52;4.00;;;21.50;99.90;;;;;;4979379;28;20061;-55
2022/05/11 11:17:54;;;;;;;12.50;4.28;;;21.40;99.90;;;;;;5012993;28;20129;-57
2022/05/11 11:20:22;;;;;;;11.60;3.47;;;21.50;99.90;;;;;;5084075;28;20043;-56
2022/05/11 11:23:06;;;;;;;13.75;4.55;;;21.40;99.90;;;;;;5063227;28;20510;-54
2022/05/11 11:25:52;;;;;;;16.02;4.38;;;21.50;99.90;;;;;;5076833;28;20052;-56
2022/05/11 11:28:20;;;;;;;12.73;4.00;;;21.30;99.90;;;;;;5080672;28;20353;-53
2022/05/11 11:30:58;;;;;;;18.05;3.78;;;21.30;99.90;;;;;;5061339;28;20167;-57
2022/05/11 11:33:26;;;;;;;13.07;3.25;;;21.40;99.90;;;;;;5081574;28;20056;-56
2022/05/11 11:36:28;;;;;;;11.52;4.07;;;21.40;99.90;;;;;;5061140;28;20131;-57
2022/05/11 11:38:59;;;;;;;12.27;3.30;;;21.60;99.90;;;;;;5080355;28;20516;-57
2022/05/11 11:41:30;;;;;;;15.43;3.10;;;21.40;99.90;;;;;;5080978;28;20547;-54
2022/05/11 11:43:58;;;;;;;11.75;3.28;;;21.50;99.90;;;;;;5081454;28;20172;-52
2022/05/11 11:46:36;;;;;;;8.10;2.50;;;21.60;99.90;;;;;;5059956;28;20596;-56
2022/05/11 11:49:02;;;;;;;11.30;3.08;;;21.50;98.80;;;;;;5079796;28;20052;-56
2022/05/11 11:51:50;;;;;;;11.32;3.13;;;21.50;99.40;;;;;;5079125;28;20044;-58
2022/05/11 11:54:38;;;;;;;8.57;3.15;;;21.30;98.40;;;;;;5093452;28;20055;-57
2022/05/11 11:57:27;;;;;;;11.55;3.38;;;21.30;98.00;;;;;;5100830;28;20054;-53
2022/05/11 11:59:56;;;;;;;14.48;3.28;;;21.40;98.80;;;;;;5101420;28;20086;-56
2022/05/11 12:02:34;;;;;;;9.98;2.92;;;21.40;97.90;;;;;;5101143;28;20044;-54
2022/05/11 12:05:11;;;;;;;10.32;2.80;;;21.40;97.30;;;;;;5101854;28;20175;-57
2022/05/11 12:16:24;;;;;;;12.20;3.35;;;21.50;96.50;;;;;;5067237;28;20054;-54
2022/05/11 12:18:51;;;;;;;10.25;2.92;;;21.60;97.20;;;;;;5078760;28;20095;-56
2022/05/11 12:21:34;;;;;;;11.65;3.65;;;21.50;95.90;;;;;;5080659;28;20131;-54
2022/05/11 12:24:07;;;;;;;10.32;2.60;;;21.30;97.40;;;;;;5081560;28;20061;-56
2022/05/11 12:26:39;;;;;;;14.52;4.00;;;21.20;96.80;;;;;;5073608;28;20043;-56
2022/05/11 12:32:07;;;;;;;10.98;4.22;;;21.20;97.70;;;;;;5080543;28;20052;-57
2022/05/11 12:34:43;;;;;;;20.63;3.67;;;21.10;97.40;;;;;;5059818;28;20052;-54
2022/05/11 12:37:33;;;;;;;13.85;4.00;;;21.10;98.30;;;;;;5058963;28;20538;-47
2022/05/11 12:40:05;;;;;;;11.60;4.32;;;20.90;98.20;;;;;;5059839;28;20044;-53
2022/05/11 12:42:41;;;;;;;16.55;3.90;;;20.90;98.90;;;;;;5061432;28;20052;-57
2022/05/11 12:45:11;;;;;;;18.98;4.47;;;20.90;99.30;;;;;;5063621;28;20052;-55
2022/05/11 12:47:50;;;;;;;13.55;3.92;;;20.80;99.30;;;;;;5061491;28;20067;-53
2022/05/11 12:50:22;;;;;;;10.73;3.22;;;20.90;99.60;;;;;;5063421;28;20053;-57
2022/05/11 12:53:15;;;;;;;14.27;3.85;;;20.90;99.70;;;;;;5064098;28;20048;-52
2022/05/11 12:55:43;;;;;;;11.82;3.58;;;21.00;99.50;;;;;;5056217;28;20055;-55
2022/05/11 12:58:20;;;;;;;15.15;3.92;;;20.90;99.80;;;;;;5063231;28;20325;-53
2022/05/11 13:00:46;;;;;;;15.50;5.40;;;20.90;99.00;;;;;;5062395;28;20071;-53
2022/05/11 13:03:34;;;;;;;14.02;3.72;;;20.90;99.00;;;;;;5062264;28;20056;-54
2022/05/11 13:06:40;;;;;;;13.45;3.92;;;20.90;98.90;;;;;;5063606;28;20067;-49
2022/05/11 13:09:14;;;;;;;16.92;4.25;;;20.80;99.50;;;;;;5063290;28;20056;-55
2022/05/11 13:11:40;;;;;;;34.47;5.97;;;20.80;99.30;;;;;;5052284;28;20130;-49
2022/05/11 13:14:16;;;;;;;15.32;5.18;;;20.80;99.60;;;;;;5061689;28;20547;-56
2022/05/11 13:17:06;;;;;;;16.27;4.35;;;20.80;99.80;;;;;;5061360;28;20137;-55
2022/05/11 13:19:37;;;;;;;14.43;4.30;;;20.90;99.90;;;;;;5043384;28;20053;-52
2022/05/11 13:22:12;;;;;;;16.58;4.72;;;20.90;99.90;;;;;;5055677;28;20495;-52
2022/05/11 13:24:45;;;;;;;14.98;4.65;;;21.00;99.80;;;;;;5051161;28;20092;-56
2022/05/11 13:27:32;;;;;;;16.02;3.83;;;20.90;99.20;;;;;;5060628;28;20560;-55
2022/05/11 13:30:07;;;;;;;17.40;5.38;;;20.90;99.60;;;;;;5056076;28;20055;-56
2022/05/11 13:32:39;;;;;;;14.75;3.50;;;21.20;99.90;;;;;;5062106;28;20052;-57
2022/05/11 13:35:26;;;;;;;15.00;4.17;;;21.20;99.40;;;;;;5067704;28;20059;-54
2022/05/11 13:38:00;;;;;;;17.67;4.68;;;21.30;98.60;;;;;;5061608;28;20109;-56